createdAt,value
2019-01-04T00:00:26.864Z,1030.97
2019-01-04T00:01:26.885Z,1030.97
2019-01-04T00:02:26.907Z,1030.96
2019-01-04T00:03:26.931Z,1030.99
2019-01-04T00:04:26.949Z,1031.04
2019-01-04T00:05:26.969Z,1031.04
2019-01-04T00:06:26.990Z,1030.98
2019-01-04T00:07:27.013Z,1031.03
2019-01-04T00:08:27.036Z,1030.96
2019-01-04T00:09:27.061Z,1030.96
2019-01-04T00:10:27.080Z,1030.99
2019-01-04T00:11:27.100Z,1030.92
2019-01-04T00:12:27.125Z,1030.92
2019-01-04T00:13:27.143Z,1030.86
2019-01-04T00:14:27.167Z,1030.83
2019-01-04T00:15:27.186Z,1030.80
2019-01-04T00:16:27.212Z,1030.78
2019-01-04T00:17:27.233Z,1030.79
2019-01-04T00:18:27.253Z,1030.72
2019-01-04T00:19:27.276Z,1030.71
2019-01-04T00:20:27.351Z,1030.75
2019-01-04T00:21:27.323Z,1030.77
2019-01-04T00:22:27.342Z,1030.76
2019-01-04T00:23:27.364Z,1030.75
2019-01-04T00:24:27.387Z,1030.72
2019-01-04T00:25:27.411Z,1030.73
2019-01-04T00:26:27.427Z,1030.69
2019-01-04T00:27:27.450Z,1030.69
2019-01-04T00:28:27.473Z,1030.69
2019-01-04T00:29:27.496Z,1030.71
2019-01-04T00:30:27.516Z,1030.76
2019-01-04T00:31:27.539Z,1030.74
2019-01-04T00:32:27.558Z,1030.74
2019-01-04T00:33:27.582Z,1030.73
2019-01-04T00:34:27.600Z,1030.72
2019-01-04T00:35:27.625Z,1030.74
2019-01-04T00:36:27.650Z,1030.71
2019-01-04T00:37:27.675Z,1030.71
2019-01-04T00:38:27.690Z,1030.71
2019-01-04T00:39:27.713Z,1030.68
2019-01-04T00:40:27.738Z,1030.72
2019-01-04T00:41:27.756Z,1030.75
2019-01-04T00:42:27.775Z,1030.70
2019-01-04T00:43:27.797Z,1030.68
2019-01-04T00:44:27.821Z,1030.70
2019-01-04T00:45:27.843Z,1030.60
2019-01-04T00:46:27.860Z,1030.63
2019-01-04T00:47:27.885Z,1030.64
2019-01-04T00:48:27.905Z,1030.71
2019-01-04T00:49:27.930Z,1030.67
2019-01-04T00:50:27.948Z,1030.66
2019-01-04T00:51:27.973Z,1030.64
2019-01-04T00:52:27.995Z,1030.65
2019-01-04T00:53:28.016Z,1030.70
2019-01-04T00:54:28.039Z,1030.66
2019-01-04T00:55:28.060Z,1030.74
2019-01-04T00:56:28.083Z,1030.66
2019-01-04T00:57:28.104Z,1030.69
2019-01-04T00:58:28.122Z,1030.70
2019-01-04T00:59:28.145Z,1030.63
2019-01-04T01:00:28.171Z,1030.65
2019-01-04T01:01:28.189Z,1030.67
2019-01-04T01:02:28.213Z,1030.63
2019-01-04T01:03:28.234Z,1030.59
2019-01-04T01:04:28.254Z,1030.58
2019-01-04T01:05:28.276Z,1030.64
2019-01-04T01:06:28.301Z,1030.67
2019-01-04T01:07:28.321Z,1030.66
2019-01-04T01:08:28.341Z,1030.77
2019-01-04T01:09:28.366Z,1030.81
2019-01-04T01:10:28.387Z,1030.81
2019-01-04T01:11:28.413Z,1030.85
2019-01-04T01:12:28.430Z,1030.90
2019-01-04T01:13:28.450Z,1030.89
2019-01-04T01:14:28.473Z,1030.96
2019-01-04T01:15:28.495Z,1030.92
2019-01-04T01:16:28.515Z,1030.95
2019-01-04T01:17:28.539Z,1030.94
2019-01-04T01:18:28.559Z,1030.94
2019-01-04T01:19:28.582Z,1031.01
2019-01-04T01:20:28.606Z,1030.96
2019-01-04T01:21:28.624Z,1030.94
2019-01-04T01:22:28.647Z,1030.92
2019-01-04T01:23:28.666Z,1030.91
2019-01-04T01:24:28.691Z,1030.88
2019-01-04T01:25:28.710Z,1030.95
2019-01-04T01:26:28.730Z,1030.91
2019-01-04T01:27:28.758Z,1030.95
2019-01-04T01:28:28.775Z,1030.93
2019-01-04T01:29:28.800Z,1030.94
2019-01-04T01:30:28.820Z,1030.92
2019-01-04T01:31:28.839Z,1030.97
2019-01-04T01:32:28.868Z,1030.97
2019-01-04T01:33:28.890Z,1030.95
2019-01-04T01:34:28.906Z,1030.98
2019-01-04T01:35:28.926Z,1031.01
2019-01-04T01:36:28.952Z,1031.01
2019-01-04T01:37:28.970Z,1031.09
2019-01-04T01:38:29.001Z,1031.06
2019-01-04T01:39:29.020Z,1031.05
2019-01-04T01:40:29.035Z,1031.08
2019-01-04T01:41:29.060Z,1031.07
2019-01-04T01:42:29.080Z,1031.15
2019-01-04T01:43:29.100Z,1031.14
2019-01-04T01:44:29.124Z,1031.14
2019-01-04T01:45:29.143Z,1031.10
2019-01-04T01:46:29.164Z,1031.03
2019-01-04T01:47:29.189Z,1031.07
2019-01-04T01:48:29.216Z,1031.02
2019-01-04T01:49:29.233Z,1030.99
2019-01-04T01:50:29.251Z,1031.00
2019-01-04T01:51:29.272Z,1030.92
2019-01-04T01:52:29.295Z,1030.90
2019-01-04T01:53:29.317Z,1030.83
2019-01-04T01:54:29.342Z,1030.82
2019-01-04T01:55:29.362Z,1030.79
2019-01-04T01:56:29.384Z,1030.80
2019-01-04T01:57:29.403Z,1030.76
2019-01-04T01:58:29.430Z,1030.76
2019-01-04T01:59:29.445Z,1030.76
2019-01-04T02:00:29.470Z,1030.79
2019-01-04T02:01:29.499Z,1030.75
2019-01-04T02:02:29.531Z,1030.72
2019-01-04T02:03:29.537Z,1030.74
2019-01-04T02:04:29.557Z,1030.68
2019-01-04T02:05:29.578Z,1030.72
2019-01-04T02:06:29.598Z,1030.68
2019-01-04T02:07:29.622Z,1030.74
2019-01-04T02:08:29.644Z,1030.74
2019-01-04T02:09:29.669Z,1030.77
2019-01-04T02:10:29.684Z,1030.75
2019-01-04T02:11:29.707Z,1030.75
2019-01-04T02:12:29.730Z,1030.75
2019-01-04T02:13:29.750Z,1030.82
2019-01-04T02:14:29.771Z,1030.77
2019-01-04T02:15:29.793Z,1030.78
2019-01-04T02:16:29.818Z,1030.81
2019-01-04T02:17:29.836Z,1030.84
2019-01-04T02:18:29.860Z,1030.83
2019-01-04T02:19:29.887Z,1030.83
2019-01-04T02:20:29.901Z,1030.81
2019-01-04T02:21:29.922Z,1030.82
2019-01-04T02:22:29.947Z,1030.78
2019-01-04T02:23:29.967Z,1030.76
2019-01-04T02:24:29.988Z,1030.80
2019-01-04T02:25:30.012Z,1030.76
2019-01-04T02:26:30.032Z,1030.76
2019-01-04T02:27:30.054Z,1030.75
2019-01-04T02:28:30.075Z,1030.74
2019-01-04T02:29:30.101Z,1030.69
2019-01-04T02:30:30.126Z,1030.72
2019-01-04T02:31:30.144Z,1030.74
2019-01-04T02:32:30.163Z,1030.75
2019-01-04T02:33:30.180Z,1030.82
2019-01-04T02:34:30.202Z,1030.74
2019-01-04T02:35:30.237Z,1030.76
2019-01-04T02:36:30.256Z,1030.81
2019-01-04T02:37:30.270Z,1030.78
2019-01-04T02:38:30.289Z,1030.79
2019-01-04T02:39:30.313Z,1030.76
2019-01-04T02:40:30.334Z,1030.77
2019-01-04T02:41:30.362Z,1030.77
2019-01-04T02:42:30.377Z,1030.70
2019-01-04T02:43:30.398Z,1030.76
2019-01-04T02:44:30.420Z,1030.78
2019-01-04T02:45:30.439Z,1030.76
2019-01-04T02:46:30.460Z,1030.79
2019-01-04T02:47:30.489Z,1030.87
2019-01-04T02:48:30.503Z,1030.81
2019-01-04T02:49:30.524Z,1030.81
2019-01-04T02:50:30.547Z,1030.89
2019-01-04T02:51:30.578Z,1030.88
2019-01-04T02:52:30.588Z,1030.88
2019-01-04T02:53:30.610Z,1030.90
2019-01-04T02:54:30.633Z,1030.87
2019-01-04T02:55:30.655Z,1030.86
2019-01-04T02:56:30.680Z,1030.86
2019-01-04T02:57:30.695Z,1030.93
2019-01-04T02:58:30.739Z,1030.86
2019-01-04T02:59:30.738Z,1030.84
2019-01-04T03:00:30.766Z,1030.86
2019-01-04T03:01:30.783Z,1030.84
2019-01-04T03:02:30.800Z,1030.88
2019-01-04T03:03:30.830Z,1030.88
2019-01-04T03:04:30.844Z,1030.92
2019-01-04T03:05:30.867Z,1030.91
2019-01-04T03:06:30.889Z,1030.90
2019-01-04T03:07:30.908Z,1030.86
2019-01-04T03:08:30.937Z,1030.88
2019-01-04T03:09:30.951Z,1030.87
2019-01-04T03:10:30.971Z,1030.86
2019-01-04T03:11:30.993Z,1030.84
2019-01-04T03:12:31.014Z,1030.82
2019-01-04T03:13:31.037Z,1030.84
2019-01-04T03:14:31.058Z,1030.81
2019-01-04T03:15:31.079Z,1030.78
2019-01-04T03:16:31.100Z,1030.75
2019-01-04T03:17:31.120Z,1030.77
2019-01-04T03:18:31.144Z,1030.75
2019-01-04T03:19:31.167Z,1030.79
2019-01-04T03:20:31.190Z,1030.72
2019-01-04T03:21:31.207Z,1030.75
2019-01-04T03:22:31.232Z,1030.76
2019-01-04T03:23:31.247Z,1030.74
2019-01-04T03:24:31.271Z,1030.75
2019-01-04T03:25:31.293Z,1030.68
2019-01-04T03:26:31.314Z,1030.74
2019-01-04T03:27:31.335Z,1030.69
2019-01-04T03:28:31.355Z,1030.67
2019-01-04T03:29:31.376Z,1030.62
2019-01-04T03:30:31.411Z,1030.56
2019-01-04T03:31:31.425Z,1030.57
2019-01-04T03:32:31.439Z,1030.54
2019-01-04T03:33:31.461Z,1030.49
2019-01-04T03:34:31.481Z,1030.43
2019-01-04T03:35:31.502Z,1030.38
2019-01-04T03:36:31.530Z,1030.37
2019-01-04T03:37:31.545Z,1030.43
2019-01-04T03:38:31.569Z,1030.35
2019-01-04T03:39:31.591Z,1030.36
2019-01-04T03:40:31.612Z,1030.33
2019-01-04T03:41:31.634Z,1030.32
2019-01-04T03:42:31.701Z,1030.30
2019-01-04T03:43:31.676Z,1030.27
2019-01-04T03:44:31.697Z,1030.28
2019-01-04T03:45:31.719Z,1030.22
2019-01-04T03:46:31.736Z,1030.21
2019-01-04T03:47:31.759Z,1030.15
2019-01-04T03:48:31.783Z,1030.10
2019-01-04T03:49:31.805Z,1030.13
2019-01-04T03:50:31.825Z,1030.14
2019-01-04T03:51:31.846Z,1030.14
2019-01-04T03:52:31.866Z,1030.13
2019-01-04T03:53:31.895Z,1030.11
2019-01-04T03:54:31.915Z,1030.09
2019-01-04T03:55:31.943Z,1030.13
2019-01-04T03:56:31.953Z,1030.19
2019-01-04T03:57:31.974Z,1030.22
2019-01-04T03:58:31.996Z,1030.20
2019-01-04T03:59:32.018Z,1030.24
2019-01-04T04:00:32.039Z,1030.24
2019-01-04T04:01:32.061Z,1030.27
2019-01-04T04:02:32.078Z,1030.29
2019-01-04T04:03:32.103Z,1030.28
2019-01-04T04:04:32.125Z,1030.29
2019-01-04T04:05:32.144Z,1030.29
2019-01-04T04:06:32.167Z,1030.25
2019-01-04T04:07:32.196Z,1030.19
2019-01-04T04:08:32.210Z,1030.22
2019-01-04T04:09:32.229Z,1030.17
2019-01-04T04:10:32.260Z,1030.16
2019-01-04T04:11:32.274Z,1030.09
2019-01-04T04:12:32.295Z,1030.09
2019-01-04T04:13:32.315Z,1030.04
2019-01-04T04:14:32.336Z,1030.03
2019-01-04T04:15:32.367Z,1030.10
2019-01-04T04:16:32.381Z,1030.07
2019-01-04T04:17:32.404Z,1030.11
2019-01-04T04:18:32.422Z,1030.10
2019-01-04T04:19:32.442Z,1030.15
2019-01-04T04:20:32.475Z,1030.15
2019-01-04T04:21:32.489Z,1030.19
2019-01-04T04:22:32.506Z,1030.20
2019-01-04T04:23:32.530Z,1030.16
2019-01-04T04:24:32.556Z,1030.12
2019-01-04T04:25:32.572Z,1030.13
2019-01-04T04:26:32.595Z,1030.08
2019-01-04T04:27:32.616Z,1030.10
2019-01-04T04:28:32.637Z,1030.10
2019-01-04T04:29:32.658Z,1030.10
2019-01-04T04:30:32.679Z,1030.05
2019-01-04T04:31:32.704Z,1030.06
2019-01-04T04:32:32.724Z,1029.97
2019-01-04T04:33:32.749Z,1030.02
2019-01-04T04:34:32.764Z,1029.98
2019-01-04T04:35:32.784Z,1030.00
2019-01-04T04:36:32.807Z,1029.97
2019-01-04T04:37:32.829Z,1029.91
2019-01-04T04:38:32.861Z,1029.84
2019-01-04T04:39:32.870Z,1029.91
2019-01-04T04:40:32.895Z,1029.97
2019-01-04T04:41:32.919Z,1029.97
2019-01-04T04:42:32.935Z,1029.95
2019-01-04T04:43:32.958Z,1029.93
2019-01-04T04:44:32.979Z,1029.91
2019-01-04T04:45:33.004Z,1029.94
2019-01-04T04:46:33.019Z,1029.88
2019-01-04T04:47:33.044Z,1029.93
2019-01-04T04:48:33.066Z,1029.92
2019-01-04T04:49:33.086Z,1029.97
2019-01-04T04:50:33.108Z,1030.00
2019-01-04T04:51:33.130Z,1030.00
2019-01-04T04:52:33.149Z,1030.02
2019-01-04T04:53:33.171Z,1030.02
2019-01-04T04:54:33.195Z,1030.01
2019-01-04T04:55:33.213Z,1030.01
2019-01-04T04:56:33.233Z,1029.97
2019-01-04T04:57:33.258Z,1029.96
2019-01-04T04:58:33.279Z,1030.03
2019-01-04T04:59:33.300Z,1030.00
2019-01-04T05:00:33.323Z,1030.04
2019-01-04T05:01:33.345Z,1030.05
2019-01-04T05:02:33.362Z,1030.06
2019-01-04T05:03:33.387Z,1030.09
2019-01-04T05:04:33.415Z,1030.06
2019-01-04T05:05:33.428Z,1030.10
2019-01-04T05:06:33.447Z,1030.07
2019-01-04T05:07:33.470Z,1030.06
2019-01-04T05:08:33.495Z,1030.06
2019-01-04T05:09:33.512Z,1030.04
2019-01-04T05:10:33.537Z,1030.02
2019-01-04T05:11:33.567Z,1029.99
2019-01-04T05:12:33.585Z,1029.97
2019-01-04T05:13:33.598Z,1030.01
2019-01-04T05:14:33.621Z,1029.97
2019-01-04T05:15:33.645Z,1030.01
2019-01-04T05:16:33.662Z,1029.96
2019-01-04T05:17:33.684Z,1029.97
2019-01-04T05:18:33.706Z,1029.99
2019-01-04T05:19:33.729Z,1029.98
2019-01-04T05:20:33.749Z,1029.93
2019-01-04T05:21:33.774Z,1029.92
2019-01-04T05:22:33.793Z,1029.90
2019-01-04T05:23:33.814Z,1029.89
2019-01-04T05:24:33.838Z,1029.83
2019-01-04T05:25:33.859Z,1029.81
2019-01-04T05:26:33.879Z,1029.79
2019-01-04T05:27:33.902Z,1029.78
2019-01-04T05:28:33.920Z,1029.76
2019-01-04T05:29:33.941Z,1029.73
2019-01-04T05:30:33.963Z,1029.68
2019-01-04T05:31:33.987Z,1029.66
2019-01-04T05:32:34.008Z,1029.65
2019-01-04T05:33:34.030Z,1029.68
2019-01-04T05:34:34.051Z,1029.61
2019-01-04T05:35:34.072Z,1029.61
2019-01-04T05:36:34.093Z,1029.65
2019-01-04T05:37:34.113Z,1029.59
2019-01-04T05:38:34.138Z,1029.61
2019-01-04T05:39:34.155Z,1029.60
2019-01-04T05:40:34.177Z,1029.62
2019-01-04T05:41:34.201Z,1029.64
2019-01-04T05:42:34.221Z,1029.67
2019-01-04T05:43:34.241Z,1029.58
2019-01-04T05:44:34.267Z,1029.54
2019-01-04T05:45:34.287Z,1029.49
2019-01-04T05:46:34.312Z,1029.56
2019-01-04T05:47:34.329Z,1029.46
2019-01-04T05:48:34.347Z,1029.55
2019-01-04T05:49:34.372Z,1029.55
2019-01-04T05:50:34.393Z,1029.47
2019-01-04T05:51:34.414Z,1029.49
2019-01-04T05:52:34.438Z,1029.52
2019-01-04T05:53:34.456Z,1029.49
2019-01-04T05:54:34.476Z,1029.50
2019-01-04T05:55:34.500Z,1029.56
2019-01-04T05:56:34.520Z,1029.62
2019-01-04T05:57:34.541Z,1029.62
2019-01-04T05:58:34.562Z,1029.61
2019-01-04T05:59:34.583Z,1029.67
2019-01-04T06:00:34.607Z,1029.65
2019-01-04T06:01:34.630Z,1029.60
2019-01-04T06:02:34.649Z,1029.60
2019-01-04T06:03:34.673Z,1029.60
2019-01-04T06:04:34.694Z,1029.60
2019-01-04T06:05:34.715Z,1029.66
2019-01-04T06:06:34.733Z,1029.70
2019-01-04T06:07:34.757Z,1029.74
2019-01-04T06:08:34.779Z,1029.70
2019-01-04T06:09:34.801Z,1029.59
2019-01-04T06:10:34.819Z,1029.57
2019-01-04T06:11:34.842Z,1029.54
2019-01-04T06:12:34.863Z,1029.50
2019-01-04T06:13:34.887Z,1029.59
2019-01-04T06:14:34.904Z,1029.53
2019-01-04T06:15:34.926Z,1029.46
2019-01-04T06:16:34.947Z,1029.54
2019-01-04T06:17:34.971Z,1029.53
2019-01-04T06:18:34.993Z,1029.56
2019-01-04T06:19:35.016Z,1029.60
2019-01-04T06:20:35.035Z,1029.60
2019-01-04T06:21:35.059Z,1029.62
2019-01-04T06:22:35.080Z,1029.63
2019-01-04T06:23:35.098Z,1029.61
2019-01-04T06:24:35.119Z,1029.59
2019-01-04T06:25:35.153Z,1029.59
2019-01-04T06:26:35.163Z,1029.57
2019-01-04T06:27:35.182Z,1029.60
2019-01-04T06:28:35.210Z,1029.59
2019-01-04T06:29:35.226Z,1029.63
2019-01-04T06:30:35.247Z,1029.66
2019-01-04T06:31:35.271Z,1029.65
2019-01-04T06:32:35.291Z,1029.69
2019-01-04T06:33:35.313Z,1029.73
2019-01-04T06:34:35.335Z,1029.71
2019-01-04T06:35:35.379Z,1029.70
2019-01-04T06:36:35.379Z,1029.66
2019-01-04T06:37:35.399Z,1029.68
2019-01-04T06:38:35.420Z,1029.65
2019-01-04T06:39:35.440Z,1029.65
2019-01-04T06:40:35.463Z,1029.65
2019-01-04T06:41:35.483Z,1029.65
2019-01-04T06:42:35.507Z,1029.67
2019-01-04T06:43:35.528Z,1029.73
2019-01-04T06:44:35.547Z,1029.70
2019-01-04T06:45:35.570Z,1029.64
2019-01-04T06:46:35.592Z,1029.62
2019-01-04T06:47:35.610Z,1029.55
2019-01-04T06:48:35.632Z,1029.57
2019-01-04T06:49:35.656Z,1029.57
2019-01-04T06:50:35.676Z,1029.56
2019-01-04T06:51:35.701Z,1029.59
2019-01-04T06:52:35.723Z,1029.57
2019-01-04T06:53:35.742Z,1029.54
2019-01-04T06:54:35.760Z,1029.58
2019-01-04T06:55:35.787Z,1029.60
2019-01-04T06:56:35.803Z,1029.55
2019-01-04T06:57:35.824Z,1029.55
2019-01-04T06:58:35.845Z,1029.63
2019-01-04T06:59:35.867Z,1029.58
2019-01-04T07:00:35.890Z,1029.61
2019-01-04T07:01:35.913Z,1029.68
2019-01-04T07:02:35.933Z,1029.70
2019-01-04T07:03:35.952Z,1029.75
2019-01-04T07:04:35.976Z,1029.78
2019-01-04T07:05:35.997Z,1029.81
2019-01-04T07:06:36.018Z,1029.81
2019-01-04T07:07:36.043Z,1029.83
2019-01-04T07:08:36.062Z,1029.85
2019-01-04T07:09:36.081Z,1029.85
2019-01-04T07:10:36.104Z,1029.82
2019-01-04T07:11:36.129Z,1029.74
2019-01-04T07:12:36.146Z,1029.77
2019-01-04T07:13:36.170Z,1029.71
2019-01-04T07:14:36.189Z,1029.63
2019-01-04T07:15:36.209Z,1029.65
2019-01-04T07:16:36.234Z,1029.60
2019-01-04T07:17:36.255Z,1029.67
2019-01-04T07:18:36.274Z,1029.66
2019-01-04T07:19:36.297Z,1029.65
2019-01-04T07:20:36.319Z,1029.67
2019-01-04T07:21:36.339Z,1029.63
2019-01-04T07:22:36.359Z,1029.62
2019-01-04T07:23:36.381Z,1029.61
2019-01-04T07:24:36.406Z,1029.61
2019-01-04T07:25:36.427Z,1029.67
2019-01-04T07:26:36.447Z,1029.64
2019-01-04T07:27:36.469Z,1029.71
2019-01-04T07:28:36.491Z,1029.65
2019-01-04T07:29:36.517Z,1029.69
2019-01-04T07:30:36.535Z,1029.67
2019-01-04T07:31:36.556Z,1029.68
2019-01-04T07:32:36.575Z,1029.78
2019-01-04T07:33:36.600Z,1029.76
2019-01-04T07:34:36.621Z,1029.81
2019-01-04T07:35:36.641Z,1029.72
2019-01-04T07:36:36.663Z,1029.78
2019-01-04T07:37:36.687Z,1029.76
2019-01-04T07:38:36.706Z,1029.81
2019-01-04T07:39:36.727Z,1029.80
2019-01-04T07:40:36.748Z,1029.77
2019-01-04T07:41:36.776Z,1029.74
2019-01-04T07:42:36.794Z,1029.77
2019-01-04T07:43:36.816Z,1029.78
2019-01-04T07:44:36.836Z,1029.76
2019-01-04T07:45:36.858Z,1029.75
2019-01-04T07:46:36.879Z,1029.81
2019-01-04T07:47:36.903Z,1029.80
2019-01-04T07:48:36.924Z,1029.80
2019-01-04T07:49:36.950Z,1029.75
2019-01-04T07:50:36.969Z,1029.73
2019-01-04T07:51:36.990Z,1029.73
2019-01-04T07:52:37.013Z,1029.68
2019-01-04T07:53:37.033Z,1029.67
2019-01-04T07:54:37.057Z,1029.65
2019-01-04T07:55:37.080Z,1029.63
2019-01-04T07:56:37.099Z,1029.69
2019-01-04T07:57:37.125Z,1029.62
2019-01-04T07:58:37.145Z,1029.64
2019-01-04T07:59:37.164Z,1029.67
2019-01-04T08:00:37.189Z,1029.63
2019-01-04T08:01:37.209Z,1029.62
2019-01-04T08:02:37.231Z,1029.61
2019-01-04T08:03:37.254Z,1029.67
2019-01-04T08:04:37.276Z,1029.67
2019-01-04T08:05:37.299Z,1029.66
2019-01-04T08:06:37.318Z,1029.65
2019-01-04T08:07:37.344Z,1029.66
2019-01-04T08:08:37.365Z,1029.59
2019-01-04T08:09:37.387Z,1029.57
2019-01-04T08:10:37.408Z,1029.58
2019-01-04T08:11:37.428Z,1029.63
2019-01-04T08:12:37.454Z,1029.63
2019-01-04T08:13:37.477Z,1029.64
2019-01-04T08:14:37.497Z,1029.67
2019-01-04T08:15:37.519Z,1029.58
2019-01-04T08:16:37.538Z,1029.65
2019-01-04T08:17:37.564Z,1029.64
2019-01-04T08:18:37.584Z,1029.55
2019-01-04T08:19:37.607Z,1029.54
2019-01-04T08:20:37.627Z,1029.52
2019-01-04T08:21:37.651Z,1029.49
2019-01-04T08:22:37.673Z,1029.53
2019-01-04T08:23:37.692Z,1029.50
2019-01-04T08:24:37.717Z,1029.51
2019-01-04T08:25:37.740Z,1029.50
2019-01-04T08:26:37.759Z,1029.50
2019-01-04T08:27:37.784Z,1029.53
2019-01-04T08:28:37.804Z,1029.50
2019-01-04T08:29:37.828Z,1029.45
2019-01-04T08:30:37.851Z,1029.50
2019-01-04T08:31:37.869Z,1029.52
2019-01-04T08:32:37.893Z,1029.51
2019-01-04T08:33:37.916Z,1029.57
2019-01-04T08:34:37.937Z,1029.52
2019-01-04T08:35:37.960Z,1029.54
2019-01-04T08:36:37.984Z,1029.56
2019-01-04T08:37:38.005Z,1029.50
2019-01-04T08:38:38.026Z,1029.47
2019-01-04T08:39:38.051Z,1029.52
2019-01-04T08:40:38.072Z,1029.44
2019-01-04T08:41:38.096Z,1029.45
2019-01-04T08:42:38.118Z,1029.46
2019-01-04T08:43:38.139Z,1029.46
2019-01-04T08:44:38.162Z,1029.47
2019-01-04T08:45:38.184Z,1029.49
2019-01-04T08:46:38.208Z,1029.50
2019-01-04T08:47:38.233Z,1029.52
2019-01-04T08:48:38.252Z,1029.49
2019-01-04T08:49:38.275Z,1029.48
2019-01-04T08:50:38.298Z,1029.47
2019-01-04T08:51:38.319Z,1029.47
2019-01-04T08:52:38.342Z,1029.48
2019-01-04T08:53:38.368Z,1029.47
2019-01-04T08:54:38.389Z,1029.43
2019-01-04T08:55:38.414Z,1029.45
2019-01-04T08:56:38.703Z,1029.43
2019-01-04T08:57:38.458Z,1029.36
2019-01-04T08:58:38.479Z,1029.39
2019-01-04T08:59:38.502Z,1029.37
2019-01-04T09:00:38.524Z,1029.36
2019-01-04T09:01:38.550Z,1029.33
2019-01-04T09:02:38.570Z,1029.34
2019-01-04T09:03:38.593Z,1029.33
2019-01-04T09:04:38.614Z,1029.31
2019-01-04T09:05:38.637Z,1029.29
2019-01-04T09:06:38.659Z,1029.26
2019-01-04T09:07:38.686Z,1029.29
2019-01-04T09:08:38.705Z,1029.30
2019-01-04T09:09:38.729Z,1029.28
2019-01-04T09:10:38.792Z,1029.27
2019-01-04T09:11:38.772Z,1029.22
2019-01-04T09:12:38.798Z,1029.22
2019-01-04T09:13:38.819Z,1029.25
2019-01-04T09:14:38.841Z,1029.20
2019-01-04T09:15:38.866Z,1029.20
2019-01-04T09:16:38.886Z,1029.20
2019-01-04T09:17:38.912Z,1029.18
2019-01-04T09:18:38.932Z,1029.17
2019-01-04T09:19:38.957Z,1029.15
2019-01-04T09:20:38.978Z,1029.11
2019-01-04T09:21:39.004Z,1029.11
2019-01-04T09:22:39.030Z,1029.14
2019-01-04T09:23:39.048Z,1029.18
2019-01-04T09:24:39.071Z,1029.17
2019-01-04T09:25:39.094Z,1029.07
2019-01-04T09:26:39.116Z,1029.10
2019-01-04T09:27:39.141Z,1029.19
2019-01-04T09:28:39.162Z,1029.15
2019-01-04T09:29:39.183Z,1029.10
2019-01-04T09:30:39.208Z,1029.05
2019-01-04T09:31:39.229Z,1029.05
2019-01-04T09:32:39.254Z,1029.03
2019-01-04T09:33:39.275Z,1028.99
2019-01-04T09:34:39.303Z,1028.97
2019-01-04T09:35:39.323Z,1028.98
2019-01-04T09:36:39.344Z,1028.94
2019-01-04T09:37:39.383Z,1028.98
2019-01-04T09:38:39.389Z,1028.98
2019-01-04T09:39:39.412Z,1029.03
2019-01-04T09:40:40.197Z,1029.03
2019-01-04T09:41:39.459Z,1028.97
2019-01-04T09:42:39.484Z,1028.96
2019-01-04T09:43:39.507Z,1028.90
2019-01-04T09:44:39.530Z,1028.89
2019-01-04T09:45:39.552Z,1028.88
2019-01-04T09:46:39.577Z,1028.91
2019-01-04T09:47:39.601Z,1028.89
2019-01-04T09:48:39.623Z,1028.89
2019-01-04T09:49:39.647Z,1028.92
2019-01-04T09:50:39.669Z,1028.88
2019-01-04T09:51:39.696Z,1028.87
2019-01-04T09:52:39.715Z,1028.80
2019-01-04T09:53:39.744Z,1028.80
2019-01-04T09:54:39.762Z,1028.73
2019-01-04T09:55:39.783Z,1028.76
2019-01-04T09:56:39.809Z,1028.75
2019-01-04T09:57:39.831Z,1028.74
2019-01-04T09:58:39.855Z,1028.67
2019-01-04T09:59:39.878Z,1028.62
2019-01-04T10:00:39.902Z,1028.63
2019-01-04T10:01:39.930Z,1028.65
2019-01-04T10:02:39.948Z,1028.64
2019-01-04T10:03:39.969Z,1028.62
2019-01-04T10:04:39.992Z,1028.56
2019-01-04T10:05:40.018Z,1028.61
2019-01-04T10:06:40.038Z,1028.64
2019-01-04T10:07:40.061Z,1028.60
2019-01-04T10:08:44.891Z,1028.52
2019-01-04T10:09:40.109Z,1028.58
2019-01-04T10:10:40.132Z,1028.56
2019-01-04T10:11:40.157Z,1028.61
2019-01-04T10:12:40.180Z,1028.58
2019-01-04T10:13:40.205Z,1028.55
2019-01-04T10:14:40.223Z,1028.55
2019-01-04T10:15:40.251Z,1028.55
2019-01-04T10:16:40.272Z,1028.50
2019-01-04T10:17:40.294Z,1028.56
2019-01-04T10:18:40.322Z,1028.53
2019-01-04T10:19:40.341Z,1028.56
2019-01-04T10:20:40.363Z,1028.52
2019-01-04T10:21:40.389Z,1028.50
2019-01-04T10:22:40.412Z,1028.46
2019-01-04T10:23:40.433Z,1028.52
2019-01-04T10:24:40.457Z,1028.52
2019-01-04T10:25:40.480Z,1028.49
2019-01-04T10:26:40.502Z,1028.53
2019-01-04T10:27:40.526Z,1028.50
2019-01-04T10:28:40.549Z,1028.45
2019-01-04T10:29:40.573Z,1028.42
2019-01-04T10:30:40.592Z,1028.45
2019-01-04T10:31:40.616Z,1028.41
2019-01-04T10:32:40.643Z,1028.38
2019-01-04T10:33:40.664Z,1028.38
2019-01-04T10:34:40.687Z,1028.34
2019-01-04T10:35:40.712Z,1028.34
2019-01-04T10:36:40.733Z,1028.38
2019-01-04T10:37:40.754Z,1028.32
2019-01-04T10:38:40.779Z,1028.30
2019-01-04T10:39:40.802Z,1028.35
2019-01-04T10:40:40.825Z,1028.31
2019-01-04T10:41:40.849Z,1028.35
2019-01-04T10:42:40.869Z,1028.34
2019-01-04T10:43:40.892Z,1028.38
2019-01-04T10:44:40.917Z,1028.35
2019-01-04T10:45:40.938Z,1028.31
2019-01-04T10:46:40.963Z,1028.28
2019-01-04T10:47:40.986Z,1028.31
2019-01-04T10:48:41.009Z,1028.25
2019-01-04T10:49:41.030Z,1028.23
2019-01-04T10:50:41.052Z,1028.26
2019-01-04T10:51:41.075Z,1028.21
2019-01-04T10:52:41.100Z,1028.14
2019-01-04T10:53:41.122Z,1028.16
2019-01-04T10:54:41.147Z,1028.13
2019-01-04T10:55:41.170Z,1028.15
2019-01-04T10:56:41.190Z,1028.09
2019-01-04T10:57:41.216Z,1028.08
2019-01-04T10:58:41.238Z,1028.01
2019-01-04T10:59:41.267Z,1027.96
2019-01-04T11:00:41.284Z,1027.88
2019-01-04T11:01:41.306Z,1027.94
2019-01-04T11:02:41.334Z,1028.01
2019-01-04T11:03:41.351Z,1027.96
2019-01-04T11:04:41.376Z,1028.01
2019-01-04T11:05:41.397Z,1027.99
2019-01-04T11:06:41.421Z,1027.97
2019-01-04T11:07:41.444Z,1027.95
2019-01-04T11:08:41.466Z,1027.95
2019-01-04T11:09:41.490Z,1027.90
2019-01-04T11:10:41.510Z,1027.94
2019-01-04T11:11:41.533Z,1027.97
2019-01-04T11:12:41.574Z,1028.01
2019-01-04T11:13:41.582Z,1027.98
2019-01-04T11:14:41.603Z,1027.93
2019-01-04T11:15:41.625Z,1027.90
2019-01-04T11:16:41.650Z,1027.82
2019-01-04T11:17:41.674Z,1027.83
2019-01-04T11:18:41.693Z,1027.81
2019-01-04T11:19:41.719Z,1027.74
2019-01-04T11:20:41.744Z,1027.76
2019-01-04T11:21:41.763Z,1027.74
2019-01-04T11:22:41.786Z,1027.63
2019-01-04T11:23:41.811Z,1027.65
2019-01-04T11:24:41.834Z,1027.60
2019-01-04T11:25:41.856Z,1027.67
2019-01-04T11:26:41.876Z,1027.64
2019-01-04T11:27:41.901Z,1027.65
2019-01-04T11:28:41.922Z,1027.60
2019-01-04T11:29:41.947Z,1027.57
2019-01-04T11:30:41.969Z,1027.55
2019-01-04T11:31:41.992Z,1027.46
2019-01-04T11:32:42.015Z,1027.51
2019-01-04T11:33:43.030Z,1027.41
2019-01-04T11:34:42.058Z,1027.43
2019-01-04T11:35:42.082Z,1027.43
2019-01-04T11:36:42.104Z,1027.43
2019-01-04T11:37:42.129Z,1027.42
2019-01-04T11:38:42.149Z,1027.42
2019-01-04T11:39:42.175Z,1027.43
2019-01-04T11:40:42.198Z,1027.50
2019-01-04T11:41:42.219Z,1027.40
2019-01-04T11:42:42.243Z,1027.48
2019-01-04T11:43:42.264Z,1027.44
2019-01-04T11:44:42.287Z,1027.45
2019-01-04T11:45:42.313Z,1027.45
2019-01-04T11:46:42.334Z,1027.47
2019-01-04T11:47:42.357Z,1027.50
2019-01-04T11:48:42.378Z,1027.54
2019-01-04T11:49:42.402Z,1027.50
2019-01-04T11:50:42.426Z,1027.58
2019-01-04T11:51:42.445Z,1027.63
2019-01-04T11:52:42.471Z,1027.64
2019-01-04T11:53:42.531Z,1027.64
2019-01-04T11:54:42.516Z,1027.66
2019-01-04T11:55:42.537Z,1027.62
2019-01-04T11:56:42.560Z,1027.61
2019-01-04T11:57:42.585Z,1027.55
2019-01-04T11:58:42.608Z,1027.66
2019-01-04T11:59:42.628Z,1027.57
2019-01-04T12:00:42.651Z,1027.40
2019-01-04T12:01:42.674Z,1027.42
2019-01-04T12:02:42.697Z,1027.39
2019-01-04T12:03:42.719Z,1027.36
2019-01-04T12:04:42.741Z,1027.34
2019-01-04T12:05:42.765Z,1027.31